sensor_id;sensor_type;location;lat;lon;timestamp;P1;durP1;ratioP1;P2;durP2;ratioP2
1975;SDS011;988;48.016;7.800;2022-11-11T00:00:26;15.75;;;14.73;;
1975;SDS011;988;48.016;7.800;2022-11-11T00:02:54;15.50;;;14.20;;
1975;SDS011;988;48.016;7.800;2022-11-11T00:05:20;14.20;;;13.40;;
1975;SDS011;988;48.016;7.800;2022-11-11T00:07:46;16.80;;;15.20;;
1975;SDS011;988;48.016;7.800;2022-11-11T00:10:13;15.93;;;14.60;;
1975;SDS011;988;48.016;7.800;2022-11-11T00:12:39;15.93;;;14.53;;
1975;SDS011;988;48.016;7.800;2022-11-11T00:15:05;14.80;;;13.90;;
1975;SDS011;988;48.016;7.800;2022-11-11T00:17:32;16.30;;;14.90;;
1975;SDS011;988;48.016;7.800;2022-11-11T00:20:16;16.92;;;15.52;;
1975;SDS011;988;48.016;7.800;2022-11-11T00:23:01;18.35;;;16.65;;
1975;SDS011;988;48.016;7.800;2022-11-11T00:25:45;17.83;;;16.42;;
1975;SDS011;988;48.016;7.800;2022-11-11T00:28:15;18.40;;;16.80;;
1975;SDS011;988;48.016;7.800;2022-11-11T00:30:42;17.05;;;15.73;;
1975;SDS011;988;48.016;7.800;2022-11-11T00:33:07;16.50;;;15.30;;
1975;SDS011;988;48.016;7.800;2022-11-11T00:35:33;17.73;;;15.83;;
1975;SDS011;988;48.016;7.800;2022-11-11T00:38:17;16.20;;;14.88;;
1975;SDS011;988;48.016;7.800;2022-11-11T00:41:01;16.17;;;15.07;;
1975;SDS011;988;48.016;7.800;2022-11-11T00:43:26;15.77;;;14.33;;
1975;SDS011;988;48.016;7.800;2022-11-11T00:45:52;15.50;;;14.40;;
1975;SDS011;988;48.016;7.800;2022-11-11T00:48:18;16.27;;;14.97;;
1975;SDS011;988;48.016;7.800;2022-11-11T00:51:02;15.90;;;14.35;;
1975;SDS011;988;48.016;7.800;2022-11-11T00:53:30;17.10;;;15.07;;
1975;SDS011;988;48.016;7.800;2022-11-11T00:56:00;16.02;;;14.73;;
1975;SDS011;988;48.016;7.800;2022-11-11T00:58:26;17.00;;;15.80;;
1975;SDS011;988;48.016;7.800;2022-11-11T01:00:52;17.35;;;15.95;;
1975;SDS011;988;48.016;7.800;2022-11-11T01:03:18;17.90;;;16.27;;
1975;SDS011;988;48.016;7.800;2022-11-11T01:05:44;17.10;;;15.65;;
1975;SDS011;988;48.016;7.800;2022-11-11T01:08:10;17.13;;;15.48;;
1975;SDS011;988;48.016;7.800;2022-11-11T01:10:36;16.70;;;15.50;;
1975;SDS011;988;48.016;7.800;2022-11-11T01:13:02;17.47;;;16.20;;
1975;SDS011;988;48.016;7.800;2022-11-11T01:15:38;18.08;;;16.38;;
1975;SDS011;988;48.016;7.800;2022-11-11T01:18:05;17.83;;;16.33;;
1975;SDS011;988;48.016;7.800;2022-11-11T01:20:31;16.92;;;15.52;;
1975;SDS011;988;48.016;7.800;2022-11-11T01:22:58;14.47;;;13.50;;
1975;SDS011;988;48.016;7.800;2022-11-11T01:25:23;16.10;;;14.70;;
1975;SDS011;988;48.016;7.800;2022-11-11T01:27:49;15.40;;;14.30;;
1975;SDS011;988;48.016;7.800;2022-11-11T01:30:15;15.93;;;14.73;;
1975;SDS011;988;48.016;7.800;2022-11-11T01:32:40;14.57;;;13.50;;
1975;SDS011;988;48.016;7.800;2022-11-11T01:35:06;15.97;;;14.63;;
1975;SDS011;988;48.016;7.800;2022-11-11T01:37:32;15.03;;;14.03;;
1975;SDS011;988;48.016;7.800;2022-11-11T01:39:58;16.38;;;15.18;;
1975;SDS011;988;48.016;7.800;2022-11-11T01:42:24;14.43;;;13.53;;
1975;SDS011;988;48.016;7.800;2022-11-11T01:44:49;14.67;;;13.47;;
1975;SDS011;988;48.016;7.800;2022-11-11T01:47:15;13.63;;;12.63;;
1975;SDS011;988;48.016;7.800;2022-11-11T01:52:35;13.90;;;12.90;;
1975;SDS011;988;48.016;7.800;2022-11-11T01:55:12;13.80;;;12.80;;
1975;SDS011;988;48.016;7.800;2022-11-11T01:57:45;13.73;;;12.82;;
1975;SDS011;988;48.016;7.800;2022-11-11T02:00:13;13.98;;;12.90;;
1975;SDS011;988;48.016;7.800;2022-11-11T02:02:43;14.75;;;13.65;;
1975;SDS011;988;48.016;7.800;2022-11-11T02:05:15;14.98;;;13.85;;
1975;SDS011;988;48.016;7.800;2022-11-11T02:08:05;14.93;;;13.90;;
1975;SDS011;988;48.016;7.800;2022-11-11T02:10:37;15.60;;;14.32;;
1975;SDS011;988;48.016;7.800;2022-11-11T02:13:09;15.50;;;14.27;;
1975;SDS011;988;48.016;7.800;2022-11-11T02:15:56;16.38;;;15.18;;
1975;SDS011;988;48.016;7.800;2022-11-11T02:18:21;17.27;;;16.00;;
1975;SDS011;988;48.016;7.800;2022-11-11T02:20:47;17.30;;;15.90;;
1975;SDS011;988;48.016;7.800;2022-11-11T02:23:14;14.80;;;13.60;;
1975;SDS011;988;48.016;7.800;2022-11-11T02:26:00;15.32;;;14.10;;
1975;SDS011;988;48.016;7.800;2022-11-11T02:28:28;15.27;;;13.82;;
1975;SDS011;988;48.016;7.800;2022-11-11T02:30:57;14.82;;;13.35;;
1975;SDS011;988;48.016;7.800;2022-11-11T02:33:23;13.93;;;12.60;;
1975;SDS011;988;48.016;7.800;2022-11-11T02:35:49;13.47;;;12.57;;
1975;SDS011;988;48.016;7.800;2022-11-11T02:38:22;14.43;;;13.43;;
1975;SDS011;988;48.016;7.800;2022-11-11T02:40:49;14.73;;;13.50;;
1975;SDS011;988;48.016;7.800;2022-11-11T02:43:33;13.70;;;12.80;;
1975;SDS011;988;48.016;7.800;2022-11-11T02:46:00;14.53;;;13.07;;
1975;SDS011;988;48.016;7.800;2022-11-11T02:48:27;14.68;;;12.80;;
1975;SDS011;988;48.016;7.800;2022-11-11T02:50:53;13.80;;;12.32;;
1975;SDS011;988;48.016;7.800;2022-11-11T02:53:19;12.90;;;11.90;;
1975;SDS011;988;48.016;7.800;2022-11-11T02:55:45;13.27;;;12.05;;
1975;SDS011;988;48.016;7.800;2022-11-11T02:58:11;13.37;;;12.47;;
1975;SDS011;988;48.016;7.800;2022-11-11T03:00:38;13.10;;;12.20;;
1975;SDS011;988;48.016;7.800;2022-11-11T03:03:04;12.90;;;12.10;;
1975;SDS011;988;48.016;7.800;2022-11-11T03:05:29;13.53;;;12.63;;
1975;SDS011;988;48.016;7.800;2022-11-11T03:07:55;13.85;;;12.95;;
1975;SDS011;988;48.016;7.800;2022-11-11T03:10:21;14.80;;;13.53;;
1975;SDS011;988;48.016;7.800;2022-11-11T03:12:46;14.00;;;13.10;;
1975;SDS011;988;48.016;7.800;2022-11-11T03:15:12;14.33;;;13.43;;
1975;SDS011;988;48.016;7.800;2022-11-11T03:17:38;14.63;;;13.50;;
1975;SDS011;988;48.016;7.800;2022-11-11T03:20:07;13.50;;;12.70;;
1975;SDS011;988;48.016;7.800;2022-11-11T03:23:03;13.27;;;12.38;;
1975;SDS011;988;48.016;7.800;2022-11-11T03:25:33;12.90;;;11.80;;
1975;SDS011;988;48.016;7.800;2022-11-11T03:28:03;12.70;;;11.65;;
1975;SDS011;988;48.016;7.800;2022-11-11T03:30:40;12.75;;;12.05;;
1975;SDS011;988;48.016;7.800;2022-11-11T03:33:07;13.20;;;12.20;;
1975;SDS011;988;48.016;7.800;2022-11-11T03:35:35;13.20;;;12.00;;
1975;SDS011;988;48.016;7.800;2022-11-11T03:38:01;14.70;;;13.10;;
1975;SDS011;988;48.016;7.800;2022-11-11T03:40:48;13.63;;;12.63;;
1975;SDS011;988;48.016;7.800;2022-11-11T03:43:20;15.20;;;13.70;;
1975;SDS011;988;48.016;7.800;2022-11-11T03:45:48;13.30;;;12.50;;
1975;SDS011;988;48.016;7.800;2022-11-11T03:48:14;14.07;;;12.68;;
1975;SDS011;988;48.016;7.800;2022-11-11T03:50:39;12.73;;;11.93;;
1975;SDS011;988;48.016;7.800;2022-11-11T03:53:06;14.00;;;12.90;;
1975;SDS011;988;48.016;7.800;2022-11-11T03:55:32;15.13;;;12.98;;
1975;SDS011;988;48.016;7.800;2022-11-11T03:57:57;13.97;;;13.17;;
1975;SDS011;988;48.016;7.800;2022-11-11T04:00:24;13.67;;;12.87;;
1975;SDS011;988;48.016;7.800;2022-11-11T04:03:00;13.63;;;12.63;;
1975;SDS011;988;48.016;7.800;2022-11-11T04:05:53;13.40;;;12.60;;
1975;SDS011;988;48.016;7.800;2022-11-11T04:08:47;12.02;;;11.30;;
1975;SDS011;988;48.016;7.800;2022-11-11T04:11:33;12.50;;;11.70;;
1975;SDS011;988;48.016;7.800;2022-11-11T04:14:02;13.32;;;12.52;;
1975;SDS011;988;48.016;7.800;2022-11-11T04:16:49;12.85;;;11.82;;
1975;SDS011;988;48.016;7.800;2022-11-11T04:19:15;13.03;;;12.33;;
1975;SDS011;988;48.016;7.800;2022-11-11T04:21:59;13.23;;;12.35;;
1975;SDS011;988;48.016;7.800;2022-11-11T04:24:24;13.80;;;12.80;;
1975;SDS011;988;48.016;7.800;2022-11-11T04:27:09;12.77;;;12.07;;
1975;SDS011;988;48.016;7.800;2022-11-11T04:29:37;13.60;;;12.77;;
1975;SDS011;988;48.016;7.800;2022-11-11T04:32:04;13.77;;;12.70;;
1975;SDS011;988;48.016;7.800;2022-11-11T04:35:00;14.00;;;13.20;;
1975;SDS011;988;48.016;7.800;2022-11-11T04:37:28;15.70;;;14.60;;
1975;SDS011;988;48.016;7.800;2022-11-11T04:39:56;14.15;;;13.25;;
1975;SDS011;988;48.016;7.800;2022-11-11T04:42:40;14.00;;;13.20;;
1975;SDS011;988;48.016;7.800;2022-11-11T04:45:06;13.30;;;12.17;;
1975;SDS011;988;48.016;7.800;2022-11-11T04:50:30;13.52;;;12.57;;
1975;SDS011;988;48.016;7.800;2022-11-11T04:52:58;15.35;;;14.25;;
1975;SDS011;988;48.016;7.800;2022-11-11T04:55:25;16.25;;;15.25;;
1975;SDS011;988;48.016;7.800;2022-11-11T04:58:11;17.15;;;15.93;;
1975;SDS011;988;48.016;7.800;2022-11-11T05:00:37;17.02;;;15.80;;
1975;SDS011;988;48.016;7.800;2022-11-11T05:03:03;16.87;;;15.87;;
1975;SDS011;988;48.016;7.800;2022-11-11T05:05:47;15.50;;;14.60;;
1975;SDS011;988;48.016;7.800;2022-11-11T05:08:34;14.85;;;13.95;;
1975;SDS011;988;48.016;7.800;2022-11-11T05:11:20;13.43;;;12.73;;
1975;SDS011;988;48.016;7.800;2022-11-11T05:13:49;13.50;;;12.68;;
1975;SDS011;988;48.016;7.800;2022-11-11T05:16:55;13.65;;;12.75;;
1975;SDS011;988;48.016;7.800;2022-11-11T05:19:40;11.57;;;10.88;;
1975;SDS011;988;48.016;7.800;2022-11-11T05:22:40;11.50;;;10.80;;
1975;SDS011;988;48.016;7.800;2022-11-11T05:25:07;11.23;;;10.50;;
1975;SDS011;988;48.016;7.800;2022-11-11T05:27:49;11.20;;;10.50;;
1975;SDS011;988;48.016;7.800;2022-11-11T05:30:16;12.30;;;11.07;;
1975;SDS011;988;48.016;7.800;2022-11-11T05:32:42;11.17;;;10.47;;
1975;SDS011;988;48.016;7.800;2022-11-11T05:35:09;12.38;;;11.55;;
1975;SDS011;988;48.016;7.800;2022-11-11T05:37:36;11.35;;;10.73;;
1975;SDS011;988;48.016;7.800;2022-11-11T05:40:02;11.17;;;10.27;;
1975;SDS011;988;48.016;7.800;2022-11-11T05:42:28;11.50;;;10.85;;
1975;SDS011;988;48.016;7.800;2022-11-11T05:44:53;11.30;;;10.60;;
1975;SDS011;988;48.016;7.800;2022-11-11T05:47:19;12.93;;;11.93;;
1975;SDS011;988;48.016;7.800;2022-11-11T05:49:45;12.93;;;12.07;;
1975;SDS011;988;48.016;7.800;2022-11-11T05:52:11;12.30;;;11.60;;
1975;SDS011;988;48.016;7.800;2022-11-11T05:54:37;12.73;;;11.45;;
1975;SDS011;988;48.016;7.800;2022-11-11T05:57:04;14.43;;;13.00;;
1975;SDS011;988;48.016;7.800;2022-11-11T05:59:29;14.50;;;13.40;;
1975;SDS011;988;48.016;7.800;2022-11-11T06:01:55;12.27;;;11.57;;
1975;SDS011;988;48.016;7.800;2022-11-11T06:04:21;12.97;;;12.07;;
1975;SDS011;988;48.016;7.800;2022-11-11T06:06:47;13.47;;;12.57;;
1975;SDS011;988;48.016;7.800;2022-11-11T06:09:12;14.53;;;13.43;;
1975;SDS011;988;48.016;7.800;2022-11-11T06:11:38;14.17;;;13.17;;
1975;SDS011;988;48.016;7.800;2022-11-11T06:14:04;14.10;;;12.90;;
1975;SDS011;988;48.016;7.800;2022-11-11T06:16:30;15.88;;;13.95;;
1975;SDS011;988;48.016;7.800;2022-11-11T06:18:55;15.50;;;14.57;;
1975;SDS011;988;48.016;7.800;2022-11-11T06:21:21;15.43;;;14.33;;
1975;SDS011;988;48.016;7.800;2022-11-11T06:23:46;15.30;;;14.30;;
1975;SDS011;988;48.016;7.800;2022-11-11T06:26:12;14.77;;;13.77;;
1975;SDS011;988;48.016;7.800;2022-11-11T06:31:10;12.38;;;11.65;;
1975;SDS011;988;48.016;7.800;2022-11-11T06:33:38;12.63;;;11.93;;
1975;SDS011;988;48.016;7.800;2022-11-11T06:36:04;11.98;;;11.02;;
1975;SDS011;988;48.016;7.800;2022-11-11T06:38:30;12.98;;;11.88;;
1975;SDS011;988;48.016;7.800;2022-11-11T06:40:56;12.97;;;11.80;;
1975;SDS011;988;48.016;7.800;2022-11-11T06:43:22;13.45;;;12.40;;
1975;SDS011;988;48.016;7.800;2022-11-11T06:45:54;23.30;;;16.10;;
1975;SDS011;988;48.016;7.800;2022-11-11T06:48:20;34.45;;;25.80;;
1975;SDS011;988;48.016;7.800;2022-11-11T06:50:47;23.75;;;21.35;;
1975;SDS011;988;48.016;7.800;2022-11-11T06:53:13;16.80;;;15.20;;
1975;SDS011;988;48.016;7.800;2022-11-11T06:55:40;17.58;;;15.60;;
1975;SDS011;988;48.016;7.800;2022-11-11T06:58:11;17.90;;;16.15;;
1975;SDS011;988;48.016;7.800;2022-11-11T07:00:38;16.83;;;15.52;;
1975;SDS011;988;48.016;7.800;2022-11-11T07:03:06;16.23;;;14.73;;
1975;SDS011;988;48.016;7.800;2022-11-11T07:05:34;16.88;;;15.50;;
1975;SDS011;988;48.016;7.800;2022-11-11T07:08:01;20.00;;;18.70;;
1975;SDS011;988;48.016;7.800;2022-11-11T07:10:28;16.40;;;15.23;;
1975;SDS011;988;48.016;7.800;2022-11-11T07:12:54;17.80;;;15.68;;
1975;SDS011;988;48.016;7.800;2022-11-11T07:15:19;16.10;;;14.90;;
1975;SDS011;988;48.016;7.800;2022-11-11T07:17:45;17.20;;;15.80;;
1975;SDS011;988;48.016;7.800;2022-11-11T07:20:10;17.80;;;16.30;;
1975;SDS011;988;48.016;7.800;2022-11-11T07:22:36;23.07;;;15.97;;
1975;SDS011;988;48.016;7.800;2022-11-11T07:25:02;18.65;;;17.00;;
1975;SDS011;988;48.016;7.800;2022-11-11T07:27:28;21.35;;;18.17;;
1975;SDS011;988;48.016;7.800;2022-11-11T07:29:54;19.53;;;18.27;;
1975;SDS011;988;48.016;7.800;2022-11-11T07:32:19;21.63;;;20.13;;
1975;SDS011;988;48.016;7.800;2022-11-11T07:34:45;25.03;;;22.80;;
1975;SDS011;988;48.016;7.800;2022-11-11T07:37:11;24.20;;;22.70;;
1975;SDS011;988;48.016;7.800;2022-11-11T07:39:36;21.87;;;20.60;;
1975;SDS011;988;48.016;7.800;2022-11-11T07:42:02;25.17;;;23.77;;
1975;SDS011;988;48.016;7.800;2022-11-11T07:44:30;25.88;;;24.35;;
1975;SDS011;988;48.016;7.800;2022-11-11T07:47:01;27.00;;;25.30;;
1975;SDS011;988;48.016;7.800;2022-11-11T07:49:27;29.87;;;27.97;;
1975;SDS011;988;48.016;7.800;2022-11-11T07:51:52;26.37;;;24.87;;
1975;SDS011;988;48.016;7.800;2022-11-11T07:54:18;26.07;;;24.50;;
1975;SDS011;988;48.016;7.800;2022-11-11T07:56:43;26.60;;;24.83;;
1975;SDS011;988;48.016;7.800;2022-11-11T07:59:09;26.33;;;24.50;;
1975;SDS011;988;48.016;7.800;2022-11-11T08:01:34;26.70;;;24.97;;
1975;SDS011;988;48.016;7.800;2022-11-11T08:04:00;27.00;;;25.47;;
1975;SDS011;988;48.016;7.800;2022-11-11T08:06:26;28.20;;;26.50;;
1975;SDS011;988;48.016;7.800;2022-11-11T08:08:52;28.27;;;26.57;;
1975;SDS011;988;48.016;7.800;2022-11-11T08:11:18;27.77;;;26.10;;
1975;SDS011;988;48.016;7.800;2022-11-11T08:14:03;26.83;;;25.30;;
1975;SDS011;988;48.016;7.800;2022-11-11T08:16:29;25.50;;;24.00;;
1975;SDS011;988;48.016;7.800;2022-11-11T08:18:55;24.23;;;22.93;;
1975;SDS011;988;48.016;7.800;2022-11-11T08:21:22;26.87;;;25.17;;
1975;SDS011;988;48.016;7.800;2022-11-11T08:23:48;27.13;;;25.53;;
1975;SDS011;988;48.016;7.800;2022-11-11T08:26:14;28.77;;;26.97;;
1975;SDS011;988;48.016;7.800;2022-11-11T08:28:39;32.20;;;29.97;;
1975;SDS011;988;48.016;7.800;2022-11-11T08:31:05;32.00;;;30.20;;
1975;SDS011;988;48.016;7.800;2022-11-11T08:33:30;31.97;;;30.17;;
1975;SDS011;988;48.016;7.800;2022-11-11T08:35:57;29.03;;;27.40;;
1975;SDS011;988;48.016;7.800;2022-11-11T08:38:23;33.50;;;31.07;;
1975;SDS011;988;48.016;7.800;2022-11-11T08:40:50;29.63;;;27.93;;
1975;SDS011;988;48.016;7.800;2022-11-11T08:43:16;27.65;;;26.05;;
1975;SDS011;988;48.016;7.800;2022-11-11T08:45:42;27.45;;;25.85;;
1975;SDS011;988;48.016;7.800;2022-11-11T08:48:08;25.10;;;23.80;;
1975;SDS011;988;48.016;7.800;2022-11-11T08:50:38;26.27;;;24.87;;
1975;SDS011;988;48.016;7.800;2022-11-11T08:53:07;29.10;;;27.60;;
1975;SDS011;988;48.016;7.800;2022-11-11T08:55:34;27.93;;;26.43;;
1975;SDS011;988;48.016;7.800;2022-11-11T08:58:01;24.90;;;23.60;;
1975;SDS011;988;48.016;7.800;2022-11-11T09:00:29;25.67;;;23.93;;
1975;SDS011;988;48.016;7.800;2022-11-11T09:02:59;26.17;;;24.57;;
1975;SDS011;988;48.016;7.800;2022-11-11T09:05:26;26.73;;;25.40;;
1975;SDS011;988;48.016;7.800;2022-11-11T09:07:51;28.17;;;26.67;;
1975;SDS011;988;48.016;7.800;2022-11-11T09:10:17;25.20;;;23.80;;
1975;SDS011;988;48.016;7.800;2022-11-11T09:12:43;24.93;;;23.50;;
1975;SDS011;988;48.016;7.800;2022-11-11T09:15:08;28.80;;;27.10;;
1975;SDS011;988;48.016;7.800;2022-11-11T09:17:34;28.60;;;26.83;;
1975;SDS011;988;48.016;7.800;2022-11-11T09:20:00;27.87;;;26.37;;
1975;SDS011;988;48.016;7.800;2022-11-11T09:22:25;29.30;;;27.47;;
1975;SDS011;988;48.016;7.800;2022-11-11T09:24:51;28.03;;;26.63;;
1975;SDS011;988;48.016;7.800;2022-11-11T09:27:16;26.23;;;24.73;;
1975;SDS011;988;48.016;7.800;2022-11-11T09:29:42;26.13;;;24.63;;
1975;SDS011;988;48.016;7.800;2022-11-11T09:32:08;29.03;;;27.33;;
1975;SDS011;988;48.016;7.800;2022-11-11T09:34:33;30.00;;;28.33;;
1975;SDS011;988;48.016;7.800;2022-11-11T09:36:59;30.63;;;28.73;;
1975;SDS011;988;48.016;7.800;2022-11-11T09:39:24;29.57;;;27.63;;
1975;SDS011;988;48.016;7.800;2022-11-11T09:41:58;31.40;;;29.37;;
1975;SDS011;988;48.016;7.800;2022-11-11T09:49:59;30.93;;;28.90;;
1975;SDS011;988;48.016;7.800;2022-11-11T09:55:18;27.73;;;26.03;;
1975;SDS011;988;48.016;7.800;2022-11-11T09:57:52;31.50;;;29.60;;
1975;SDS011;988;48.016;7.800;2022-11-11T10:00:24;31.70;;;29.60;;
1975;SDS011;988;48.016;7.800;2022-11-11T10:02:59;28.50;;;26.70;;
1975;SDS011;988;48.016;7.800;2022-11-11T10:10:47;31.00;;;29.30;;
1975;SDS011;988;48.016;7.800;2022-11-11T10:13:15;31.63;;;29.83;;
1975;SDS011;988;48.016;7.800;2022-11-11T10:24:15;35.10;;;32.80;;
1975;SDS011;988;48.016;7.800;2022-11-11T10:26:46;29.53;;;27.80;;
1975;SDS011;988;48.016;7.800;2022-11-11T10:29:19;28.90;;;27.00;;
1975;SDS011;988;48.016;7.800;2022-11-11T10:31:50;28.73;;;27.00;;
1975;SDS011;988;48.016;7.800;2022-11-11T10:34:26;28.50;;;26.43;;
1975;SDS011;988;48.016;7.800;2022-11-11T10:36:57;31.93;;;30.17;;
1975;SDS011;988;48.016;7.800;2022-11-11T10:39:31;32.90;;;30.80;;
1975;SDS011;988;48.016;7.800;2022-11-11T10:42:13;29.60;;;27.60;;
1975;SDS011;988;48.016;7.800;2022-11-11T10:44:41;29.97;;;27.87;;
1975;SDS011;988;48.016;7.800;2022-11-11T10:49:42;30.50;;;28.80;;
1975;SDS011;988;48.016;7.800;2022-11-11T10:52:24;33.10;;;31.20;;
1975;SDS011;988;48.016;7.800;2022-11-11T10:55:00;30.13;;;28.13;;
1975;SDS011;988;48.016;7.800;2022-11-11T11:00:06;30.07;;;28.10;;
1975;SDS011;988;48.016;7.800;2022-11-11T11:07:54;31.47;;;29.27;;
1975;SDS011;988;48.016;7.800;2022-11-11T11:10:26;31.33;;;29.43;;
1975;SDS011;988;48.016;7.800;2022-11-11T11:13:05;30.83;;;29.03;;
1975;SDS011;988;48.016;7.800;2022-11-11T11:15:37;29.17;;;27.53;;
1975;SDS011;988;48.016;7.800;2022-11-11T11:18:07;31.17;;;29.23;;
1975;SDS011;988;48.016;7.800;2022-11-11T11:20:36;31.43;;;29.63;;
1975;SDS011;988;48.016;7.800;2022-11-11T11:23:02;28.27;;;26.67;;
1975;SDS011;988;48.016;7.800;2022-11-11T11:25:29;29.60;;;28.00;;
1975;SDS011;988;48.016;7.800;2022-11-11T11:30:35;30.13;;;28.33;;
1975;SDS011;988;48.016;7.800;2022-11-11T11:33:06;32.57;;;30.47;;
1975;SDS011;988;48.016;7.800;2022-11-11T11:38:03;31.50;;;29.70;;
1975;SDS011;988;48.016;7.800;2022-11-11T11:40:43;32.00;;;29.27;;
1975;SDS011;988;48.016;7.800;2022-11-11T11:46:02;33.07;;;30.50;;
1975;SDS011;988;48.016;7.800;2022-11-11T11:51:39;30.93;;;29.13;;
1975;SDS011;988;48.016;7.800;2022-11-11T11:54:12;31.57;;;29.60;;
1975;SDS011;988;48.016;7.800;2022-11-11T11:56:40;29.53;;;27.60;;
1975;SDS011;988;48.016;7.800;2022-11-11T12:13:18;27.33;;;25.57;;
1975;SDS011;988;48.016;7.800;2022-11-11T12:16:14;26.70;;;24.90;;
1975;SDS011;988;48.016;7.800;2022-11-11T12:19:10;25.90;;;24.30;;
1975;SDS011;988;48.016;7.800;2022-11-11T12:25:16;26.30;;;24.50;;
1975;SDS011;988;48.016;7.800;2022-11-11T12:28:02;24.63;;;23.03;;
1975;SDS011;988;48.016;7.800;2022-11-11T12:30:50;28.20;;;26.27;;
1975;SDS011;988;48.016;7.800;2022-11-11T12:33:33;30.33;;;28.17;;
1975;SDS011;988;48.016;7.800;2022-11-11T12:39:29;27.87;;;26.17;;
1975;SDS011;988;48.016;7.800;2022-11-11T12:42:02;29.07;;;27.10;;
1975;SDS011;988;48.016;7.800;2022-11-11T12:44:45;30.33;;;28.03;;
1975;SDS011;988;48.016;7.800;2022-11-11T12:53:13;26.80;;;24.87;;
1975;SDS011;988;48.016;7.800;2022-11-11T13:01:40;28.43;;;26.13;;
1975;SDS011;988;48.016;7.800;2022-11-11T13:09:56;28.60;;;26.90;;
1975;SDS011;988;48.016;7.800;2022-11-11T13:15:32;28.77;;;27.17;;
1975;SDS011;988;48.016;7.800;2022-11-11T13:17:58;29.30;;;27.13;;
1975;SDS011;988;48.016;7.800;2022-11-11T13:23:09;28.07;;;25.90;;
1975;SDS011;988;48.016;7.800;2022-11-11T13:25:36;30.30;;;28.20;;
1975;SDS011;988;48.016;7.800;2022-11-11T13:28:06;30.33;;;28.33;;
1975;SDS011;988;48.016;7.800;2022-11-11T13:33:24;29.57;;;27.47;;
1975;SDS011;988;48.016;7.800;2022-11-11T13:36:06;26.00;;;24.40;;
1975;SDS011;988;48.016;7.800;2022-11-11T13:38:35;26.10;;;23.97;;
1975;SDS011;988;48.016;7.800;2022-11-11T13:41:23;27.67;;;25.87;;
1975;SDS011;988;48.016;7.800;2022-11-11T13:43:56;28.00;;;26.40;;
1975;SDS011;988;48.016;7.800;2022-11-11T13:46:43;27.80;;;25.80;;
1975;SDS011;988;48.016;7.800;2022-11-11T13:51:58;27.13;;;25.43;;
1975;SDS011;988;48.016;7.800;2022-11-11T13:54:29;25.27;;;23.60;;
1975;SDS011;988;48.016;7.800;2022-11-11T13:57:08;27.80;;;26.10;;
1975;SDS011;988;48.016;7.800;2022-11-11T14:00:04;29.00;;;27.00;;
1975;SDS011;988;48.016;7.800;2022-11-11T14:02:32;27.70;;;26.00;;
1975;SDS011;988;48.016;7.800;2022-11-11T14:20:40;28.17;;;26.30;;
1975;SDS011;988;48.016;7.800;2022-11-11T14:36:41;28.13;;;26.07;;
1975;SDS011;988;48.016;7.800;2022-11-11T14:42:01;29.33;;;27.53;;
1975;SDS011;988;48.016;7.800;2022-11-11T15:07:00;27.67;;;25.57;;
1975;SDS011;988;48.016;7.800;2022-11-11T15:23:37;27.27;;;25.57;;
1975;SDS011;988;48.016;7.800;2022-11-11T15:26:14;25.53;;;23.43;;
1975;SDS011;988;48.016;7.800;2022-11-11T15:31:50;31.40;;;29.30;;
1975;SDS011;988;48.016;7.800;2022-11-11T15:37:11;25.55;;;23.73;;
1975;SDS011;988;48.016;7.800;2022-11-11T15:39:43;29.80;;;27.02;;
1975;SDS011;988;48.016;7.800;2022-11-11T15:42:12;30.52;;;28.42;;
1975;SDS011;988;48.016;7.800;2022-11-11T15:44:57;25.13;;;23.63;;
1975;SDS011;988;48.016;7.800;2022-11-11T15:47:25;25.83;;;23.65;;
1975;SDS011;988;48.016;7.800;2022-11-11T15:49:52;27.95;;;25.80;;
1975;SDS011;988;48.016;7.800;2022-11-11T15:54:53;27.67;;;25.90;;
1975;SDS011;988;48.016;7.800;2022-11-11T15:59:48;27.38;;;25.45;;
1975;SDS011;988;48.016;7.800;2022-11-11T16:02:16;29.50;;;27.40;;
1975;SDS011;988;48.016;7.800;2022-11-11T16:04:48;29.55;;;27.45;;
1975;SDS011;988;48.016;7.800;2022-11-11T16:07:42;29.95;;;27.75;;
1975;SDS011;988;48.016;7.800;2022-11-11T16:10:11;29.35;;;27.15;;
1975;SDS011;988;48.016;7.800;2022-11-11T16:13:00;29.95;;;27.83;;
1975;SDS011;988;48.016;7.800;2022-11-11T16:18:05;27.08;;;24.60;;
1975;SDS011;988;48.016;7.800;2022-11-11T16:20:37;24.27;;;22.52;;
1975;SDS011;988;48.016;7.800;2022-11-11T16:23:12;28.00;;;25.90;;
1975;SDS011;988;48.016;7.800;2022-11-11T16:25:45;28.00;;;25.90;;
1975;SDS011;988;48.016;7.800;2022-11-11T16:28:15;22.67;;;21.05;;
1975;SDS011;988;48.016;7.800;2022-11-11T16:30:41;25.90;;;23.85;;
1975;SDS011;988;48.016;7.800;2022-11-11T16:36:07;28.65;;;25.58;;
1975;SDS011;988;48.016;7.800;2022-11-11T16:38:39;30.73;;;26.83;;
1975;SDS011;988;48.016;7.800;2022-11-11T16:41:20;30.15;;;27.45;;
1975;SDS011;988;48.016;7.800;2022-11-11T16:43:55;56.65;;;38.17;;
1975;SDS011;988;48.016;7.800;2022-11-11T16:52:05;42.72;;;32.88;;
1975;SDS011;988;48.016;7.800;2022-11-11T16:54:36;41.67;;;31.92;;
1975;SDS011;988;48.016;7.800;2022-11-11T16:57:11;35.85;;;29.08;;
1975;SDS011;988;48.016;7.800;2022-11-11T16:59:45;30.92;;;27.60;;
1975;SDS011;988;48.016;7.800;2022-11-11T17:02:19;38.97;;;34.97;;
1975;SDS011;988;48.016;7.800;2022-11-11T17:07:28;38.47;;;32.58;;
1975;SDS011;988;48.016;7.800;2022-11-11T17:10:13;43.40;;;35.10;;
1975;SDS011;988;48.016;7.800;2022-11-11T17:12:40;55.20;;;40.17;;
1975;SDS011;988;48.016;7.800;2022-11-11T17:15:07;42.38;;;37.83;;
1975;SDS011;988;48.016;7.800;2022-11-11T17:17:39;38.28;;;34.28;;
1975;SDS011;988;48.016;7.800;2022-11-11T17:20:11;45.97;;;36.83;;
1975;SDS011;988;48.016;7.800;2022-11-11T17:25:31;39.17;;;33.22;;
1975;SDS011;988;48.016;7.800;2022-11-11T17:27:57;40.17;;;31.98;;
1975;SDS011;988;48.016;7.800;2022-11-11T17:30:23;38.47;;;32.72;;
1975;SDS011;988;48.016;7.800;2022-11-11T17:32:49;39.33;;;32.87;;
1975;SDS011;988;48.016;7.800;2022-11-11T17:35:14;33.93;;;30.30;;
1975;SDS011;988;48.016;7.800;2022-11-11T17:37:41;36.53;;;32.47;;
1975;SDS011;988;48.016;7.800;2022-11-11T17:40:07;42.13;;;34.03;;
1975;SDS011;988;48.016;7.800;2022-11-11T17:42:34;39.55;;;34.08;;
1975;SDS011;988;48.016;7.800;2022-11-11T17:45:01;43.92;;;33.55;;
1975;SDS011;988;48.016;7.800;2022-11-11T17:47:27;40.40;;;35.63;;
1975;SDS011;988;48.016;7.800;2022-11-11T17:49:52;47.07;;;37.07;;
1975;SDS011;988;48.016;7.800;2022-11-11T17:52:18;40.60;;;34.80;;
1975;SDS011;988;48.016;7.800;2022-11-11T17:54:44;40.03;;;34.30;;
1975;SDS011;988;48.016;7.800;2022-11-11T17:57:09;43.37;;;34.10;;
1975;SDS011;988;48.016;7.800;2022-11-11T17:59:35;39.87;;;35.47;;
1975;SDS011;988;48.016;7.800;2022-11-11T18:02:03;39.60;;;35.40;;
1975;SDS011;988;48.016;7.800;2022-11-11T18:04:29;37.08;;;32.80;;
1975;SDS011;988;48.016;7.800;2022-11-11T18:06:55;37.13;;;32.53;;
1975;SDS011;988;48.016;7.800;2022-11-11T18:09:20;38.30;;;34.50;;
1975;SDS011;988;48.016;7.800;2022-11-11T18:11:46;38.60;;;32.97;;
1975;SDS011;988;48.016;7.800;2022-11-11T18:14:11;38.53;;;31.60;;
1975;SDS011;988;48.016;7.800;2022-11-11T18:16:40;36.22;;;32.30;;
1975;SDS011;988;48.016;7.800;2022-11-11T18:19:06;34.77;;;31.13;;
1975;SDS011;988;48.016;7.800;2022-11-11T18:21:32;39.63;;;32.20;;
1975;SDS011;988;48.016;7.800;2022-11-11T18:23:58;35.72;;;31.80;;
1975;SDS011;988;48.016;7.800;2022-11-11T18:26:24;35.30;;;31.60;;
1975;SDS011;988;48.016;7.800;2022-11-11T18:28:50;39.87;;;35.80;;
1975;SDS011;988;48.016;7.800;2022-11-11T18:31:15;42.77;;;37.47;;
1975;SDS011;988;48.016;7.800;2022-11-11T18:33:41;36.87;;;32.83;;
1975;SDS011;988;48.016;7.800;2022-11-11T18:36:13;41.70;;;33.10;;